Time;durP1;ratioP1;P1;durP2;ratioP2;P2;SDS_P1;SDS_P2;PMS_P1;PMS_P2;Temp;Humidity;BMP_temperature;BMP_pressure;BME280_temperature;BME280_humidity;BME280_pressure;Samples;Min_cycle;Max_cycle;Signal;HPM_P1;HPM_P2
2023/10/12 00:02:26;;;;;;;15.73;2.70;;;;;;;13.25;100.00;101059.28;4950782;28;20519;-77
2023/10/12 00:05:03;;;;;;;12.57;2.13;;;;;;;13.24;100.00;101062.81;4964941;28;20038;-77
2023/10/12 00:12:46;;;;;;;12.68;2.67;;;;;;;13.24;100.00;101068.09;4949840;28;20050;-77
2023/10/12 00:15:25;;;;;;;12.82;2.45;;;;;;;13.26;100.00;101071.59;4929958;28;20058;-77
2023/10/12 00:18:08;;;;;;;11.27;2.53;;;;;;;13.29;100.00;101075.13;4934335;28;20055;-77
2023/10/12 00:20:37;;;;;;;14.88;2.42;;;;;;;13.29;100.00;101076.03;4935993;28;20054;-77
2023/10/12 00:23:09;;;;;;;19.70;2.40;;;;;;;13.29;100.00;101073.38;4904568;28;22285;-77
2023/10/12 00:25:45;;;;;;;21.10;2.90;;;;;;;13.25;100.00;101083.09;4972991;28;20419;-77
2023/10/12 00:28:18;;;;;;;12.43;2.17;;;;;;;13.22;100.00;101080.44;4970597;28;20057;-77
2023/10/12 00:30:54;;;;;;;14.50;2.72;;;;;;;13.22;100.00;101080.44;4915279;28;20051;-77
2023/10/12 00:33:23;;;;;;;16.33;2.42;;;;;;;13.21;100.00;101072.50;4952897;28;20043;-77
2023/10/12 00:35:59;;;;;;;13.50;2.70;;;;;;;13.18;100.00;101070.78;4925286;28;20055;-77
2023/10/12 00:38:30;;;;;;;14.20;2.53;;;;;;;13.17;100.00;101082.22;4935041;29;20058;-77
2023/10/12 00:41:03;;;;;;;15.48;3.67;;;;;;;13.16;100.00;101080.47;4905495;28;20054;-77
2023/10/12 00:43:36;;;;;;;13.60;2.90;;;;;;;13.17;100.00;101070.78;4938009;28;20420;-77
2023/10/12 00:48:49;;;;;;;16.65;3.10;;;;;;;13.19;100.00;101075.16;4934399;29;20047;-77
2023/10/12 00:51:16;;;;;;;;;;;;;;;13.17;100.00;101084.00;4936368;28;20047;-77
2023/10/12 00:53:57;;;;;;;18.42;2.13;;;;;;;13.18;100.00;101076.06;4920304;28;19922;-77
2023/10/12 00:56:28;;;;;;;16.58;2.47;;;;;;;13.18;100.00;101080.47;4944134;28;20053;-77
2023/10/12 00:58:56;;;;;;;13.00;2.85;;;;;;;13.16;100.00;101085.78;4919458;28;20047;-77
2023/10/12 01:01:24;;;;;;;13.88;2.70;;;;;;;13.15;100.00;101089.28;4941704;28;20077;-78
2023/10/12 01:03:52;;;;;;;8.77;2.55;;;;;;;13.16;100.00;101091.06;4935366;28;20062;-78
2023/10/12 01:08:57;;;;;;;11.77;2.30;;;;;;;13.13;100.00;101091.06;4917603;28;20050;-77
2023/10/12 01:11:33;;;;;;;9.30;2.03;;;;;;;13.14;100.00;101086.69;4925472;28;20042;-78
2023/10/12 01:19:31;;;;;;;14.25;3.03;;;;;;;13.07;100.00;101099.03;4949764;28;20078;-78
2023/10/12 01:22:12;;;;;;;10.25;2.50;;;;;;;13.06;100.00;101091.97;4950393;28;20054;-78
2023/10/12 01:27:25;;;;;;;18.92;2.75;;;;;;;13.06;100.00;101105.19;4963787;28;20551;-77
2023/10/12 01:29:53;;;;;;;20.40;2.20;;;;;;;13.03;100.00;101090.22;4950991;28;20054;-77
2023/10/12 01:32:22;;;;;;;10.23;2.63;;;;;;;13.00;100.00;101089.34;4970157;28;20038;-77
2023/10/12 01:34:55;;;;;;;10.82;2.72;;;;;;;12.97;100.00;101082.31;4910238;28;20065;-77
2023/10/12 01:37:26;;;;;;;14.60;3.15;;;;;;;12.97;100.00;101089.38;4934059;29;20059;-77
2023/10/12 01:48:16;;;;;;;16.95;2.35;;;;;;;12.86;100.00;101081.47;4939624;28;20058;-77
2023/10/12 01:50:41;;;;;;;9.18;2.35;;;;;;;12.86;100.00;101081.47;4960439;28;20051;-77
2023/10/12 01:53:33;;;;;;;13.98;3.00;;;;;;;12.85;100.00;101082.31;4936059;28;20058;-77
2023/10/12 01:56:09;;;;;;;9.43;1.95;;;;;;;12.84;100.00;101099.09;4896314;28;20047;-77
2023/10/12 01:58:40;;;;;;;8.18;2.08;;;;;;;12.82;100.00;101100.88;4952406;28;20058;-77
2023/10/12 02:01:13;;;;;;;10.93;2.92;;;;;;;12.76;100.00;101096.47;4934114;28;20054;-77
2023/10/12 02:03:44;;;;;;;15.70;2.35;;;;;;;12.76;100.00;101095.56;4936680;28;20070;-77
2023/10/12 02:06:22;;;;;;;10.48;2.72;;;;;;;12.73;100.00;101106.16;4941392;28;20057;-77
2023/10/12 02:08:52;;;;;;;18.45;3.13;;;;;;;12.67;100.00;101110.56;4963185;28;20054;-76
2023/10/12 02:13:48;;;;;;;9.48;2.25;;;;;;;12.62;100.00;101114.09;4940753;28;20051;-77
2023/10/12 02:16:30;;;;;;;14.98;2.58;;;;;;;12.59;100.00;101109.72;4969442;28;20047;-77
2023/10/12 02:19:00;;;;;;;7.78;1.70;;;;;;;12.59;100.00;101115.00;4949551;28;20043;-77
2023/10/12 02:21:28;;;;;;;12.10;2.50;;;;;;;12.56;100.00;101119.41;4932654;28;20053;-78
2023/10/12 02:23:57;;;;;;;13.23;2.45;;;;;;;12.52;100.00;101113.25;4915658;28;20428;-77
2023/10/12 02:26:37;;;;;;;15.02;2.50;;;;;;;12.51;100.00;101115.88;4952703;28;20047;-77
2023/10/12 02:34:25;;;;;;;16.58;2.50;;;;;;;12.39;100.00;101127.34;4965398;28;20054;-77
2023/10/12 02:39:42;;;;;;;12.38;2.03;;;;;;;12.35;100.00;101134.38;4936680;28;20062;-77
2023/10/12 02:47:23;;;;;;;11.82;2.25;;;;;;;12.32;100.00;101133.50;4929211;29;20692;-77
2023/10/12 02:50:01;;;;;;;11.77;2.10;;;;;;;12.31;100.00;101137.03;4928863;28;20050;-78
2023/10/12 02:52:31;;;;;;;10.18;2.15;;;;;;;12.26;100.00;101137.00;4935702;28;20052;-77
2023/10/12 02:58:35;;;;;;;13.30;2.55;;;;;;;12.24;100.00;101152.00;4901478;28;20061;-77
2023/10/12 03:05:53;;;;;;;;;;;;;;;12.23;100.00;101163.41;4964046;28;20054;-76
2023/10/12 03:08:22;;;;;;;7.30;2.10;;;;;;;12.24;100.00;101152.84;4950569;28;19929;-76
2023/10/12 03:13:34;;;;;;;9.32;2.30;;;;;;;12.22;100.00;101166.97;4931561;28;20061;-77
2023/10/12 03:16:15;;;;;;;17.52;3.42;;;;;;;12.22;100.00;101172.25;4906140;28;20057;-78
2023/10/12 03:18:43;;;;;;;10.03;2.97;;;;;;;12.20;100.00;101168.72;4967962;28;20047;-77
2023/10/12 03:21:11;;;;;;;6.50;1.98;;;;;;;12.17;100.00;101171.34;4947675;28;20305;-76
2023/10/12 03:23:40;;;;;;;8.82;2.00;;;;;;;12.17;100.00;101174.84;4939552;28;20047;-76
2023/10/12 03:26:20;;;;;;;10.02;2.33;;;;;;;12.17;100.00;101171.34;4931772;28;20051;-76
2023/10/12 03:28:50;;;;;;;12.23;2.33;;;;;;;12.11;100.00;101173.97;4925654;28;20042;-77
2023/10/12 03:31:23;;;;;;;16.15;2.30;;;;;;;12.07;100.00;101176.59;4925966;28;20053;-77
2023/10/12 03:33:54;;;;;;;10.10;2.30;;;;;;;12.07;100.00;101181.00;4934247;28;20043;-77
2023/10/12 03:36:36;;;;;;;17.60;3.42;;;;;;;12.05;100.00;101186.28;4950847;28;20043;-77
2023/10/12 03:44:21;;;;;;;12.20;2.20;;;;;;;11.96;100.00;101191.53;4903530;28;20077;-77
2023/10/12 03:47:00;;;;;;;10.65;2.75;;;;;;;11.94;100.00;101188.03;4949610;28;20462;-76
2023/10/12 03:49:44;;;;;;;7.82;2.25;;;;;;;11.93;100.00;101191.56;4950407;28;20061;-76
2023/10/12 03:52:14;;;;;;;12.23;2.10;;;;;;;11.88;100.00;101195.91;4964424;28;20042;-76
2023/10/12 03:54:55;;;;;;;;;;;;;;;11.85;100.00;101194.13;4908812;28;20051;-77
2023/10/12 03:57:45;;;;;;;9.98;2.17;;;;;;;11.85;100.00;101199.41;4953318;28;20284;-76
2023/10/12 04:18:32;;;;;;;9.77;2.53;;;;;;;11.64;100.00;101213.38;4942202;28;20051;-77
2023/10/12 04:21:05;;;;;;;18.95;2.80;;;;;;;11.63;100.00;101213.41;4946057;28;20050;-76
2023/10/12 04:28:57;;;;;;;10.63;2.42;;;;;;;11.55;100.00;101217.75;4910666;29;20058;-76
2023/10/12 04:34:07;;;;;;;13.95;3.33;;;;;;;11.55;100.00;101223.03;4964954;28;20082;-77
2023/10/12 04:36:47;;;;;;;22.83;2.40;;;;;;;11.55;100.00;101220.38;4929853;28;20478;-77
2023/10/12 04:39:24;;;;;;;8.77;2.42;;;;;;;11.52;100.00;101226.53;4925144;28;20119;-77
2023/10/12 04:42:01;;;;;;;9.30;2.25;;;;;;;11.51;100.00;101230.94;4926694;28;20043;-76
2023/10/12 04:47:10;;;;;;;14.27;2.47;;;;;;;11.50;100.00;101241.50;4933034;28;20058;-78
2023/10/12 04:49:53;;;;;;;10.85;1.92;;;;;;;11.48;100.00;101249.38;4908266;28;20886;-78
2023/10/12 04:52:33;;;;;;;8.77;2.42;;;;;;;11.47;100.00;101249.38;4915405;28;20073;-76
2023/10/12 04:57:47;;;;;;;11.88;2.45;;;;;;;11.42;100.00;101261.69;4940207;28;20066;-78
2023/10/12 05:02:55;;;;;;;9.73;1.70;;;;;;;11.36;100.00;101266.91;4928682;29;20816;-76
2023/10/12 05:07:54;;;;;;;8.45;2.08;;;;;;;11.31;100.00;101264.25;4948483;28;20054;-77
2023/10/12 05:13:06;;;;;;;6.45;1.92;;;;;;;11.30;100.00;101276.56;4935268;28;20053;-77
2023/10/12 05:15:42;;;;;;;12.48;2.08;;;;;;;11.30;100.00;101281.84;4932648;28;20412;-77
2023/10/12 05:18:12;;;;;;;10.25;1.95;;;;;;;11.27;100.00;101275.66;4955254;28;20055;-76
2023/10/12 05:20:43;;;;;;;9.25;2.33;;;;;;;11.26;100.00;101279.16;4895879;28;20444;-77
2023/10/12 05:23:24;;;;;;;12.05;1.95;;;;;;;11.22;100.00;101280.88;4932029;28;20054;-76
2023/10/12 05:28:27;;;;;;;11.10;1.60;;;;;;;11.19;100.00;101283.50;4940443;28;20050;-77
2023/10/12 05:30:59;;;;;;;6.93;1.85;;;;;;;11.19;100.00;101290.50;4919702;28;20051;-79
2023/10/12 05:36:11;;;;;;;8.13;2.25;;;;;;;11.11;100.00;101282.53;4909232;28;20046;-77
2023/10/12 05:38:48;;;;;;;10.07;1.80;;;;;;;11.09;100.00;101292.19;4967018;28;20051;-77
2023/10/12 05:44:03;;;;;;;6.60;1.88;;;;;;;11.04;100.00;101284.28;4945666;28;20051;-76
2023/10/12 05:46:34;;;;;;;8.02;1.25;;;;;;;11.03;100.00;101294.78;4926853;28;20050;-77
2023/10/12 05:49:11;;;;;;;10.98;1.73;;;;;;;11.00;100.00;101286.84;4927851;28;20051;-79
2023/10/12 05:51:46;;;;;;;3.30;1.38;;;;;;;10.96;100.00;101295.59;4907268;28;20553;-77
2023/10/12 05:54:20;;;;;;;10.65;1.90;;;;;;;10.92;100.00;101292.94;4936586;28;20058;-77
2023/10/12 05:56:54;;;;;;;7.07;1.73;;;;;;;10.90;100.00;101299.94;4931915;28;20050;-77
2023/10/12 05:59:24;;;;;;;8.07;1.52;;;;;;;10.86;100.00;101297.28;4932800;28;20047;-78
2023/10/12 06:01:51;;;;;;;4.73;1.57;;;;;;;10.83;100.00;101303.44;4937039;28;20046;-77
2023/10/12 06:04:19;;;;;;;6.05;1.70;;;;;;;10.83;100.00;101308.69;4915239;28;20731;-77
2023/10/12 06:06:51;;;;;;;14.15;2.30;;;;;;;10.83;100.00;101303.44;4878337;28;20054;-77
2023/10/12 06:09:23;;;;;;;6.13;1.92;;;;;;;10.83;100.00;101306.06;4946318;28;20066;-77
2023/10/12 06:11:53;;;;;;;7.75;1.67;;;;;;;10.84;100.00;101314.84;4909629;28;20054;-77
2023/10/12 06:14:22;;;;;;;5.73;1.70;;;;;;;10.83;100.00;101308.69;4937165;28;20419;-77
2023/10/12 06:16:58;;;;;;;6.93;1.55;;;;;;;10.84;100.00;101310.44;4932209;28;20725;-77
2023/10/12 06:19:29;;;;;;;8.40;1.98;;;;;;;10.85;100.00;101304.31;4913645;28;20047;-78
2023/10/12 06:21:59;;;;;;;7.95;1.40;;;;;;;10.87;100.00;101304.34;4885300;28;20047;-78
2023/10/12 06:24:33;;;;;;;9.93;1.67;;;;;;;10.86;100.00;101313.97;4907528;28;20059;-78
2023/10/12 06:27:27;;;;;;;8.45;2.28;;;;;;;10.86;100.00;101308.69;4918845;28;20474;-77
2023/10/12 06:29:54;;;;;;;4.53;1.75;;;;;;;10.86;100.00;101303.44;4964790;28;20062;-77
2023/10/12 06:32:31;;;;;;;7.10;1.80;;;;;;;10.87;100.00;101292.03;4907197;28;20047;-77
2023/10/12 06:45:52;;;;;;;5.88;1.98;;;;;;;10.90;100.00;101310.50;4963126;28;20059;-81
2023/10/12 06:51:07;;;;;;;9.43;1.52;;;;;;;10.94;100.00;101311.41;4948531;28;20054;-77
2023/10/12 06:53:36;;;;;;;7.05;1.80;;;;;;;10.96;100.00;101309.66;4904535;28;20889;-77
2023/10/12 06:59:07;;;;;;;12.02;2.92;;;;;;;10.96;100.00;101322.84;4939619;28;20066;-77
2023/10/12 07:01:43;;;;;;;8.82;2.45;;;;;;;10.96;100.00;101328.13;4949078;28;20046;-77
2023/10/12 07:04:14;;;;;;;10.73;3.03;;;;;;;10.99;100.00;101327.28;4916397;28;20054;-77
2023/10/12 07:09:39;;;;;;;10.60;2.50;;;;;;;11.04;100.00;101334.38;4909169;28;20058;-77
2023/10/12 07:12:11;;;;;;;6.45;2.15;;;;;;;11.09;100.00;101337.03;4947945;28;20047;-78
2023/10/12 07:14:46;;;;;;;5.32;2.13;;;;;;;11.15;100.00;101330.94;4951622;28;20047;-78
2023/10/12 07:17:15;;;;;;;18.58;2.85;;;;;;;11.20;100.00;101340.66;4915126;28;20055;-78
2023/10/12 07:19:54;;;;;;;9.73;2.30;;;;;;;11.26;100.00;101345.97;4931336;28;20050;-77
2023/10/12 07:22:21;;;;;;;6.53;2.00;;;;;;;11.34;100.00;101347.78;4907927;28;20077;-78
2023/10/12 07:24:56;;;;;;;13.18;2.03;;;;;;;11.41;100.00;101357.53;4876041;28;20054;-77
2023/10/12 07:27:25;;;;;;;9.68;2.17;;;;;;;11.47;100.00;101352.28;4950284;28;20043;-77
2023/10/12 07:30:22;;;;;;;10.70;1.90;;;;;;;11.49;100.00;101362.00;4909704;28;20047;-77
2023/10/12 07:32:55;;;;;;;6.88;2.45;;;;;;;11.55;100.00;101368.19;4922988;28;20051;-78
2023/10/12 07:35:36;;;;;;;10.38;2.20;;;;;;;11.63;100.00;101383.22;4905027;28;20630;-77
2023/10/12 07:38:12;;;;;;;11.57;2.60;;;;;;;11.74;100.00;101392.97;4915969;28;20055;-77
2023/10/12 07:40:51;;;;;;;12.10;2.10;;;;;;;11.83;100.00;101398.31;4923718;28;20672;-78
2023/10/12 07:43:19;;;;;;;8.00;1.80;;;;;;;11.91;100.00;101404.59;4926358;28;20408;-80
2023/10/12 07:45:49;;;;;;;12.95;3.08;;;;;;;12.03;100.00;101401.13;4930359;28;20046;-79
2023/10/12 07:48:31;;;;;;;10.18;1.63;;;;;;;12.19;100.00;101394.16;4930407;28;20697;-77
2023/10/12 07:53:57;;;;;;;8.85;1.42;;;;;;;12.59;100.00;101395.25;4945685;28;20047;-77
2023/10/12 07:56:33;;;;;;;11.95;1.70;;;;;;;12.81;100.00;101401.47;4911012;28;20055;-77
2023/10/12 07:59:01;;;;;;;7.22;1.98;;;;;;;13.03;100.00;101397.09;4955878;28;20055;-76
2023/10/12 08:04:00;;;;;;;6.65;1.40;;;;;;;13.32;100.00;101398.06;4901371;29;20417;-77
2023/10/12 08:09:39;;;;;;;6.95;1.70;;;;;;;13.85;100.00;101391.84;4915094;29;20528;-79
2023/10/12 08:12:25;;;;;;;4.65;1.42;;;;;;;14.11;100.00;101401.53;4888174;29;20051;-78
2023/10/12 08:15:07;;;;;;;5.38;1.40;;;;;;;14.29;100.00;101403.22;4921860;29;20062;-77
2023/10/12 08:17:35;;;;;;;7.97;1.80;;;;;;;14.40;100.00;101404.97;4939337;28;20047;-77
2023/10/12 08:20:53;;;;;;;6.97;1.35;;;;;;;14.53;100.00;101408.44;4910517;28;20415;-78
2023/10/12 08:23:02;;;;;;;12.13;1.58;;;;;;;14.68;100.00;101410.16;4898846;29;20040;-78
2023/10/12 08:25:38;;;;;;;10.70;1.73;;;;;;;14.82;100.00;101418.97;4903402;28;20496;-77
2023/10/12 08:28:06;;;;;;;6.72;1.92;;;;;;;15.00;100.00;101403.81;4902732;28;20062;-77
2023/10/12 08:30:59;;;;;;;22.73;2.47;;;;;;;15.21;100.00;101411.63;4928462;29;20055;-76
2023/10/12 08:38:53;;;;;;;8.70;1.90;;;;;;;15.69;100.00;101413.91;4931306;28;20051;-78
2023/10/12 08:44:04;;;;;;;;;;;;;;;15.62;100.00;101428.16;4910458;28;20386;-77
2023/10/12 08:47:09;;;;;;;7.63;1.70;;;;;;;15.54;100.00;101428.22;4938717;29;19926;-77
2023/10/12 08:49:34;;;;;;;8.50;1.48;;;;;;;15.45;100.00;101424.75;4930861;28;20059;-77
2023/10/12 08:52:18;;;;;;;7.88;1.92;;;;;;;15.34;100.00;101431.00;4910818;28;20050;-78
2023/10/12 08:54:51;;;;;;;10.05;1.80;;;;;;;15.24;100.00;101426.66;4896467;29;20051;-77
2023/10/12 08:57:43;;;;;;;7.13;1.60;;;;;;;15.12;100.00;101432.94;4956456;28;20043;-77
2023/10/12 09:03:00;;;;;;;13.38;2.58;;;;;;;14.95;100.00;101434.78;4934745;28;20043;-77
2023/10/12 09:05:35;;;;;;;6.32;2.28;;;;;;;14.79;100.00;101442.84;4937856;28;20063;-76
2023/10/12 09:08:39;;;;;;;4.70;1.58;;;;;;;14.65;100.00;101439.38;4959179;28;20058;-78
2023/10/12 09:10:58;;;;;;;6.85;1.58;;;;;;;14.52;100.00;101440.28;4960225;28;20057;-77
2023/10/12 09:13:30;;;;;;;14.95;1.92;;;;;;;14.48;100.00;101436.75;4911247;28;20054;-76
2023/10/12 09:16:00;;;;;;;6.80;1.52;;;;;;;14.42;100.00;101429.72;4935850;28;20065;-77
2023/10/12 09:18:30;;;;;;;7.60;2.03;;;;;;;14.40;100.00;101431.50;4931187;28;20063;-77
2023/10/12 09:28:51;;;;;;;12.25;1.67;;;;;;;14.32;100.00;101443.88;4925356;28;19929;-78
2023/10/12 09:32:13;;;;;;;4.22;1.10;;;;;;;14.31;100.00;101446.50;4955146;28;20054;-77
2023/10/12 09:36:43;;;;;;;7.57;1.20;;;;;;;14.33;100.00;101439.44;4955454;28;20051;-79
2023/10/12 09:39:12;;;;;;;5.53;1.98;;;;;;;14.31;100.00;101447.41;4943472;28;20527;-77
2023/10/12 09:41:54;;;;;;;5.78;1.60;;;;;;;14.31;100.00;101450.06;4936155;28;20046;-76
2023/10/12 09:44:26;;;;;;;14.90;2.20;;;;;;;14.29;100.00;101459.81;4895144;28;20065;-77
2023/10/12 09:46:58;;;;;;;4.43;1.38;;;;;;;14.28;100.00;101455.38;4952021;28;20047;-77
2023/10/12 09:49:29;;;;;;;8.75;1.58;;;;;;;14.32;100.00;101457.13;4918170;28;20055;-77
2023/10/12 09:52:00;;;;;;;8.05;1.88;;;;;;;14.36;100.00;101458.88;4925315;28;20039;-77
2023/10/12 09:54:45;;;;;;;8.13;1.50;;;;;;;14.40;100.00;101460.66;4933192;28;20078;-77
2023/10/12 09:57:26;;;;;;;8.23;1.92;;;;;;;14.44;100.00;101469.44;4942013;28;20055;-77
2023/10/12 09:59:59;;;;;;;;;;;;;;;14.45;100.00;101470.34;4900118;28;20055;-77
2023/10/12 10:02:27;;;;;;;4.75;1.17;;;;;;;14.44;100.00;101466.81;4939940;28;20662;-77
2023/10/12 10:05:27;;;;;;;10.73;1.75;;;;;;;14.43;100.00;101462.41;4958611;28;20051;-78
2023/10/12 10:08:03;;;;;;;7.80;1.40;;;;;;;14.45;100.00;101467.72;4930928;28;20058;-77
2023/10/12 10:10:34;;;;;;;4.15;2.10;;;;;;;14.43;100.00;101465.94;4959230;28;20066;-78
2023/10/12 10:13:12;;;;;;;;;;;;;;;14.38;100.00;101465.06;4944095;28;20484;-78
2023/10/12 10:15:56;;;;;;;6.78;1.73;;;;;;;14.36;100.00;101466.81;4911815;28;20410;-78
2023/10/12 10:18:28;;;;;;;6.63;1.25;;;;;;;14.37;100.00;101476.56;4960825;28;20049;-78
2023/10/12 10:21:06;;;;;;;8.30;1.60;;;;;;;14.37;100.00;101468.59;4952018;28;20438;-78
2023/10/12 10:23:37;;;;;;;7.45;2.22;;;;;;;14.39;100.00;101464.19;4931216;28;20053;-79
2023/10/12 10:29:20;;;;;;;5.45;1.60;;;;;;;14.54;100.00;101465.03;4927862;28;20077;-77
2023/10/12 10:31:51;;;;;;;5.90;1.35;;;;;;;14.59;100.00;101473.88;4926323;28;20050;-78
2023/10/12 10:34:25;;;;;;;8.00;1.48;;;;;;;14.55;100.00;101472.09;4958487;28;20057;-79
2023/10/12 10:36:53;;;;;;;10.20;1.50;;;;;;;14.62;100.00;101476.53;4934133;28;20492;-79
2023/10/12 10:44:22;;;;;;;6.82;1.42;;;;;;;14.58;100.00;101478.28;4952733;28;20724;-77
2023/10/12 10:46:54;;;;;;;8.27;1.55;;;;;;;14.62;100.00;101481.81;4894797;28;20046;-78
2023/10/12 10:49:24;;;;;;;7.15;2.33;;;;;;;14.62;100.00;101482.69;4951821;28;20051;-78
2023/10/12 10:52:13;;;;;;;5.32;1.10;;;;;;;14.68;100.00;101479.13;4925058;28;20054;-78
2023/10/12 10:54:41;;;;;;;;;;;;;;;14.73;100.00;101487.09;4908461;28;20254;-79
2023/10/12 10:57:16;;;;;;;10.40;1.60;;;;;;;14.77;100.00;101478.25;4941143;28;19922;-77
2023/10/12 10:59:47;;;;;;;4.57;1.45;;;;;;;14.81;100.00;101483.50;4922302;28;20059;-77
2023/10/12 11:02:14;;;;;;;9.02;1.58;;;;;;;14.89;100.00;101479.94;4914295;28;20043;-77
2023/10/12 11:04:44;;;;;;;6.50;1.33;;;;;;;14.97;100.00;101475.47;4943369;28;20058;-77
2023/10/12 11:07:15;;;;;;;5.28;1.70;;;;;;;15.06;100.00;101478.09;4953983;28;20503;-78
2023/10/12 11:12:25;;;;;;;9.65;1.83;;;;;;;15.18;100.00;101477.16;4955337;28;20492;-78
2023/10/12 11:17:43;;;;;;;6.32;1.40;;;;;;;15.32;100.00;101469.97;4912409;28;23364;-78
2023/10/12 11:23:13;;;;;;;6.25;1.30;;;;;;;15.46;100.00;101475.19;4966639;28;20039;-78
2023/10/12 11:25:41;;;;;;;5.90;1.08;;;;;;;15.52;100.00;101459.22;4927093;28;20057;-78
2023/10/12 11:28:22;;;;;;;8.80;2.05;;;;;;;15.59;100.00;101476.88;4942960;28;20058;-79
2023/10/12 11:31:01;;;;;;;9.40;1.90;;;;;;;15.64;100.00;101462.69;4945650;28;20050;-78
2023/10/12 11:33:30;;;;;;;7.55;1.85;;;;;;;15.68;100.00;101461.75;4883710;28;20049;-79
2023/10/12 11:36:03;;;;;;;5.80;1.73;;;;;;;15.71;100.00;101457.28;4942709;28;20480;-78
2023/10/12 11:38:31;;;;;;;8.93;1.77;;;;;;;15.73;100.00;101449.31;4922169;28;20054;-77
2023/10/12 11:41:12;;;;;;;3.67;1.35;;;;;;;15.78;100.00;101453.72;4921693;28;20057;-78
2023/10/12 11:43:52;;;;;;;9.85;1.60;;;;;;;15.87;100.00;101459.84;4945902;28;20045;-78
2023/10/12 11:46:23;;;;;;;4.30;1.13;;;;;;;15.90;100.00;101462.50;4933507;28;20057;-78
2023/10/12 11:49:08;;;;;;;7.25;1.45;;;;;;;15.88;100.00;101451.88;4898536;28;20051;-77
2023/10/12 11:51:40;;;;;;;9.45;1.50;;;;;;;15.88;100.00;101450.97;4926678;28;20043;-77
2023/10/12 11:54:19;;;;;;;7.20;1.48;;;;;;;15.87;100.00;101454.53;4924844;28;20128;-77
2023/10/12 11:56:49;;;;;;;;;;;;;;;15.87;100.00;101457.19;4937417;28;20463;-77
2023/10/12 11:59:27;;;;;;;5.28;1.17;;;;;;;15.85;100.00;101446.56;4929369;28;19952;-77
2023/10/12 12:01:57;;;;;;;6.50;1.35;;;;;;;15.79;100.00;101450.16;4944990;28;20050;-78
2023/10/12 12:04:48;;;;;;;7.88;1.52;;;;;;;15.81;100.00;101447.50;4898209;28;20042;-80
2023/10/12 12:07:33;;;;;;;7.35;1.65;;;;;;;15.83;100.00;101443.06;4921864;28;20059;-79
2023/10/12 12:10:01;;;;;;;7.25;1.42;;;;;;;15.86;100.00;101437.72;4955158;28;20042;-77
2023/10/12 12:12:29;;;;;;;6.65;2.00;;;;;;;15.91;100.00;101433.22;4922239;28;20065;-77
2023/10/12 12:14:56;;;;;;;5.75;1.45;;;;;;;16.00;100.00;101440.22;4910682;28;20047;-77
2023/10/12 12:17:26;;;;;;;10.30;1.95;;;;;;;16.05;100.00;101442.81;4953790;28;20035;-77
2023/10/12 12:19:53;;;;;;;2.65;1.13;;;;;;;16.08;100.00;101438.38;4881090;28;20047;-78
2023/10/12 12:22:24;;;;;;;5.30;1.98;;;;;;;16.07;100.00;101433.09;4939357;28;20050;-77
2023/10/12 12:24:53;;;;;;;7.85;1.30;;;;;;;16.00;100.00;101429.59;4917042;28;20423;-77
2023/10/12 12:27:37;;;;;;;5.82;1.25;;;;;;;15.94;100.00;101419.03;4901952;28;20054;-77
2023/10/12 12:30:08;;;;;;;8.82;1.98;;;;;;;15.89;100.00;101421.72;4931888;28;20488;-77
2023/10/12 12:32:41;;;;;;;5.97;1.50;;;;;;;15.84;100.00;101426.22;4922536;28;20776;-78
2023/10/12 12:35:10;;;;;;;6.97;1.70;;;;;;;15.83;100.00;101420.91;4928870;28;20050;-78
2023/10/12 12:37:38;;;;;;;5.72;1.35;;;;;;;15.81;100.00;101420.94;4943356;28;20066;-79
2023/10/12 12:42:52;;;;;;;7.53;1.15;;;;;;;15.83;100.00;101421.78;4914411;28;20062;-78
2023/10/12 12:45:20;;;;;;;12.20;1.65;;;;;;;15.85;100.00;101424.44;4925724;28;20054;-77
2023/10/12 12:47:47;;;;;;;4.82;1.30;;;;;;;15.84;100.00;101425.31;4962923;28;20111;-76
2023/10/12 12:50:14;;;;;;;9.25;1.50;;;;;;;15.74;100.00;101435.16;4887957;28;20051;-77
2023/10/12 12:52:46;;;;;;;6.45;1.63;;;;;;;15.68;100.00;101417.47;4958162;28;20061;-78
2023/10/12 12:55:18;;;;;;;5.60;1.27;;;;;;;15.65;100.00;101425.47;4947674;28;20057;-77
2023/10/12 12:57:46;;;;;;;6.50;1.70;;;;;;;15.65;100.00;101411.28;4917282;28;20077;-77
2023/10/12 13:00:21;;;;;;;6.82;1.70;;;;;;;15.64;100.00;101409.53;4939552;28;20062;-77
2023/10/12 13:02:49;;;;;;;6.68;1.42;;;;;;;15.64;100.00;101398.91;4925687;28;20051;-77
2023/10/12 13:05:16;;;;;;;7.68;1.38;;;;;;;15.64;100.00;101404.22;4895230;28;20475;-77
2023/10/12 13:07:46;;;;;;;8.35;1.48;;;;;;;15.56;100.00;101396.31;4966125;28;20043;-76
2023/10/12 13:10:13;;;;;;;6.95;1.45;;;;;;;15.53;100.00;101391.03;4922740;28;20050;-76
2023/10/12 13:12:41;;;;;;;5.18;1.50;;;;;;;15.52;100.00;101391.91;4911652;28;20058;-77
2023/10/12 13:15:14;;;;;;;7.47;1.70;;;;;;;15.53;100.00;101401.66;4969354;28;20035;-76
2023/10/12 13:17:42;;;;;;;7.63;1.60;;;;;;;15.53;100.00;101402.53;4909815;28;20050;-76
2023/10/12 13:20:21;;;;;;;8.18;1.40;;;;;;;15.51;100.00;101408.75;4871275;28;20054;-77
2023/10/12 13:22:49;;;;;;;5.75;1.55;;;;;;;15.50;100.00;101406.97;4936732;28;20484;-76
2023/10/12 13:25:18;;;;;;;6.28;1.27;;;;;;;15.49;100.00;101414.06;4924454;28;20069;-78
2023/10/12 13:27:46;;;;;;;6.00;1.13;;;;;;;15.52;100.00;101408.75;4920954;28;20093;-77
2023/10/12 13:30:15;;;;;;;11.30;1.75;;;;;;;15.48;100.00;101415.00;4945552;28;20511;-77
2023/10/12 13:32:48;;;;;;;8.73;1.80;;;;;;;15.46;100.00;101406.13;4927950;28;20394;-77
2023/10/12 13:35:31;;;;;;;11.35;1.98;;;;;;;15.44;100.00;101396.41;4900676;28;20043;-76
2023/10/12 13:37:59;;;;;;;6.13;1.35;;;;;;;15.44;100.00;101397.28;4942571;28;20065;-77
2023/10/12 13:40:27;;;;;;;5.25;1.55;;;;;;;15.40;100.00;101396.44;4951596;28;20941;-77
2023/10/12 13:43:31;;;;;;;6.70;1.63;;;;;;;15.39;100.00;101401.78;4942350;28;20055;-77
2023/10/12 13:45:55;;;;;;;6.30;1.40;;;;;;;15.30;100.00;101383.25;4937565;28;20058;-77
2023/10/12 13:48:27;;;;;;;11.45;1.75;;;;;;;15.26;100.00;101384.19;4926676;28;20053;-76
2023/10/12 13:51:08;;;;;;;5.68;1.27;;;;;;;15.24;100.00;101384.19;4908648;28;20054;-76
2023/10/12 13:53:36;;;;;;;8.63;1.70;;;;;;;15.21;100.00;101389.50;4962618;28;20062;-76
2023/10/12 13:56:08;;;;;;;3.72;1.83;;;;;;;15.17;100.00;101388.66;4940104;28;20047;-76
2023/10/12 13:58:41;;;;;;;7.32;1.40;;;;;;;15.17;100.00;101387.78;4940758;28;20867;-76
2023/10/12 14:01:14;;;;;;;6.38;1.40;;;;;;;15.21;100.00;101394.81;4960508;28;20047;-76
2023/10/12 14:03:45;;;;;;;5.15;1.77;;;;;;;15.18;100.00;101392.22;4892236;28;20059;-77
2023/10/12 14:06:13;;;;;;;9.88;1.50;;;;;;;15.18;100.00;101395.72;4903964;28;20058;-77
2023/10/12 14:08:41;;;;;;;6.03;1.33;;;;;;;15.17;100.00;101378.03;4933368;28;20030;-77
2023/10/12 14:11:16;;;;;;;6.68;1.17;;;;;;;15.15;100.00;101377.16;4932986;28;20047;-76
2023/10/12 14:13:44;;;;;;;5.40;1.20;;;;;;;15.11;100.00;101372.78;4962777;28;20050;-77
2023/10/12 14:16:13;;;;;;;7.22;1.25;;;;;;;15.07;100.00;101373.69;4941384;28;20046;-77
2023/10/12 14:18:41;;;;;;;7.80;1.33;;;;;;;15.04;100.00;101365.75;4926301;28;20050;-77
2023/10/12 14:21:11;;;;;;;5.43;1.25;;;;;;;15.01;100.00;101358.69;4908665;28;20055;-77
2023/10/12 14:23:47;;;;;;;5.43;1.00;;;;;;;15.01;100.00;101358.69;4908041;28;20054;-77
2023/10/12 14:26:22;;;;;;;9.63;1.95;;;;;;;15.01;100.00;101363.13;4947050;28;20049;-77
2023/10/12 14:28:50;;;;;;;4.90;1.55;;;;;;;14.99;100.00;101364.91;4929942;28;20046;-77
2023/10/12 14:31:23;;;;;;;7.10;1.50;;;;;;;14.95;100.00;101368.44;4954219;28;20043;-77
2023/10/12 14:33:53;;;;;;;6.65;1.40;;;;;;;14.93;100.00;101362.28;4911068;28;20065;-77
2023/10/12 14:36:23;;;;;;;5.43;1.52;;;;;;;14.93;100.00;101362.28;4925720;28;20058;-77
2023/10/12 14:38:54;;;;;;;5.18;1.52;;;;;;;14.95;100.00;101360.50;4894891;28;20042;-77
2023/10/12 14:41:22;;;;;;;5.07;1.08;;;;;;;15.00;100.00;101354.25;4950922;28;20058;-77